KLM42T EHAM-EGNT
Flight info
| Callsign | KLM42T |
|---|---|
| Flight time | 0h 54m |
| Altitude | 32000 |
| Route | BERGI3N BERGI L60 SOPEK/N0342F240 L989 BODSO/N0397F320 Y70 BATLI/N0340F240 Y250 RIMTO RIMTO2N |
| Aircraft | E75L/M-SDE3GILORVW/S |
Departure
| Time | 2026-04-30 06:34 |
|---|---|
| Airport | Amsterdam Airport Schiphol (EHAM) |
Arrival
| Time | 2026-04-30 07:29 |
|---|---|
| Airport | Newcastle International Airport (EGNT) |
| Time | Latitude | Longitude | Altitude | Speed | Heading |
|---|---|---|---|---|---|
| 2026-04-30 06:07 | 52.30123 | 4.75632 | -32 ft | 0 kts | 58° |
| 2026-04-30 06:23 | 52.30115 | 4.75612 | -5 ft | 3 kts | 68° |
| 2026-04-30 06:23 | 52.30110 | 4.75577 | -5 ft | 3 kts | 99° |
| 2026-04-30 06:23 | 52.30118 | 4.75545 | -5 ft | 3 kts | 141° |
| 2026-04-30 06:24 | 52.30119 | 4.75543 | -5 ft | 3 kts | 149° |
| 2026-04-30 06:24 | 52.30106 | 4.75556 | -5 ft | 1 kts | 148° |
| 2026-04-30 06:26 | 52.30103 | 4.75559 | -5 ft | 2 kts | 148° |
| 2026-04-30 06:26 | 52.30079 | 4.75584 | -5 ft | 8 kts | 148° |
| 2026-04-30 06:27 | 52.30026 | 4.75639 | -5 ft | 10 kts | 148° |
| 2026-04-30 06:27 | 52.29983 | 4.75672 | -5 ft | 5 kts | 185° |
| 2026-04-30 06:27 | 52.29955 | 4.75632 | -5 ft | 8 kts | 240° |
| 2026-04-30 06:27 | 52.29918 | 4.75539 | -5 ft | 11 kts | 237° |
| 2026-04-30 06:28 | 52.29872 | 4.75419 | -5 ft | 13 kts | 238° |
| 2026-04-30 06:28 | 52.29835 | 4.75309 | -5 ft | 9 kts | 249° |
| 2026-04-30 06:28 | 52.29838 | 4.75210 | -5 ft | 9 kts | 292° |
| 2026-04-30 06:28 | 52.29882 | 4.75118 | -5 ft | 11 kts | 310° |
| 2026-04-30 06:29 | 52.29938 | 4.75014 | -5 ft | 13 kts | 311° |
| 2026-04-30 06:29 | 52.30003 | 4.74892 | -5 ft | 15 kts | 311° |
| 2026-04-30 06:29 | 52.30078 | 4.74754 | -5 ft | 17 kts | 311° |
| 2026-04-30 06:29 | 52.30159 | 4.74604 | -5 ft | 18 kts | 311° |
| 2026-04-30 06:30 | 52.30236 | 4.74462 | -5 ft | 17 kts | 311° |
| 2026-04-30 06:30 | 52.30318 | 4.74307 | -5 ft | 19 kts | 311° |
| 2026-04-30 06:30 | 52.30409 | 4.74201 | -5 ft | 17 kts | 347° |
| 2026-04-30 06:30 | 52.30529 | 4.74200 | -5 ft | 18 kts | 3° |
| 2026-04-30 06:31 | 52.30661 | 4.74212 | -5 ft | 20 kts | 2° |
| 2026-04-30 06:31 | 52.30797 | 4.74225 | -5 ft | 18 kts | 3° |
| 2026-04-30 06:31 | 52.30928 | 4.74237 | -5 ft | 19 kts | 2° |
| 2026-04-30 06:31 | 52.31059 | 4.74249 | -5 ft | 16 kts | 3° |
| 2026-04-30 06:32 | 52.31174 | 4.74258 | -5 ft | 17 kts | 3° |
| 2026-04-30 06:32 | 52.31300 | 4.74272 | -5 ft | 19 kts | 5° |
| 2026-04-30 06:32 | 52.31379 | 4.74309 | -5 ft | 9 kts | 48° |
| 2026-04-30 06:32 | 52.31394 | 4.74415 | -5 ft | 10 kts | 86° |
| 2026-04-30 06:33 | 52.31398 | 4.74542 | -5 ft | 12 kts | 88° |
| 2026-04-30 06:33 | 52.31418 | 4.74654 | -5 ft | 10 kts | 39° |
| 2026-04-30 06:33 | 52.31492 | 4.74667 | -5 ft | 12 kts | 356° |
| 2026-04-30 06:33 | 52.31579 | 4.74659 | -3 ft | 12 kts | 357° |
| 2026-04-30 06:34 | 52.31658 | 4.74693 | -2 ft | 12 kts | 54° |
| 2026-04-30 06:34 | 52.31677 | 4.75002 | -8 ft | 62 kts | 86° |
| 2026-04-30 06:34 | 52.31718 | 4.76143 | 5 ft | 138 kts | 87° |
| 2026-04-30 06:34 | 52.31781 | 4.77833 | 802 ft | 156 kts | 88° |
| 2026-04-30 06:35 | 52.31858 | 4.79672 | 1502 ft | 172 kts | 86° |
| 2026-04-30 06:35 | 52.32464 | 4.81426 | 2156 ft | 189 kts | 44° |
| 2026-04-30 06:35 | 52.33778 | 4.82086 | 2813 ft | 219 kts | 4° |
| 2026-04-30 06:35 | 52.35303 | 4.81256 | 3480 ft | 245 kts | 336° |
| 2026-04-30 06:36 | 52.36844 | 4.79841 | 4125 ft | 262 kts | 335° |
| 2026-04-30 06:36 | 52.38444 | 4.78248 | 4813 ft | 277 kts | 330° |
| 2026-04-30 06:36 | 52.40056 | 4.76422 | 5616 ft | 285 kts | 327° |
| 2026-04-30 06:36 | 52.41579 | 4.74286 | 6472 ft | 291 kts | 319° |
| 2026-04-30 06:37 | 52.43045 | 4.71962 | 7276 ft | 295 kts | 318° |
| 2026-04-30 06:37 | 52.44551 | 4.69654 | 8022 ft | 297 kts | 324° |
| 2026-04-30 06:37 | 52.46240 | 4.67688 | 8794 ft | 298 kts | 331° |
| 2026-04-30 06:37 | 52.48007 | 4.65971 | 9550 ft | 300 kts | 335° |
| 2026-04-30 06:38 | 52.49878 | 4.64307 | 10294 ft | 303 kts | 336° |
| 2026-04-30 06:38 | 52.51786 | 4.62824 | 11009 ft | 303 kts | 342° |
| 2026-04-30 06:38 | 52.53735 | 4.61526 | 11573 ft | 313 kts | 342° |
| 2026-04-30 06:38 | 52.55837 | 4.60157 | 11960 ft | 328 kts | 342° |
| 2026-04-30 06:39 | 52.57974 | 4.58762 | 12642 ft | 332 kts | 342° |
| 2026-04-30 06:39 | 52.60116 | 4.57369 | 13188 ft | 342 kts | 342° |
| 2026-04-30 06:39 | 52.62359 | 4.55908 | 13836 ft | 348 kts | 342° |
| 2026-04-30 06:39 | 52.64614 | 4.54391 | 14551 ft | 353 kts | 337° |
| 2026-04-30 06:40 | 52.66714 | 4.52198 | 15228 ft | 361 kts | 325° |
| 2026-04-30 06:40 | 52.68616 | 4.49463 | 15906 ft | 366 kts | 319° |
| 2026-04-30 06:40 | 52.70384 | 4.46401 | 16555 ft | 372 kts | 310° |
| 2026-04-30 06:40 | 52.71915 | 4.42930 | 17213 ft | 376 kts | 308° |
| 2026-04-30 06:41 | 52.73341 | 4.39282 | 17883 ft | 381 kts | 300° |
| 2026-04-30 06:41 | 52.74553 | 4.35349 | 18559 ft | 386 kts | 297° |
| 2026-04-30 06:41 | 52.75692 | 4.31308 | 19204 ft | 390 kts | 295° |
| 2026-04-30 06:41 | 52.76637 | 4.27092 | 19895 ft | 393 kts | 290° |
| 2026-04-30 06:42 | 52.77529 | 4.22807 | 20594 ft | 396 kts | 290° |
| 2026-04-30 06:42 | 52.78407 | 4.18466 | 21245 ft | 399 kts | 290° |
| 2026-04-30 06:42 | 52.79286 | 4.14091 | 21872 ft | 403 kts | 289° |
| 2026-04-30 06:42 | 52.80160 | 4.09727 | 22459 ft | 407 kts | 289° |
| 2026-04-30 06:43 | 52.81061 | 4.05219 | 23056 ft | 410 kts | 289° |
| 2026-04-30 06:43 | 52.81947 | 4.00785 | 23632 ft | 413 kts | 290° |
| 2026-04-30 06:43 | 52.82849 | 3.96258 | 24178 ft | 416 kts | 290° |
| 2026-04-30 06:43 | 52.83756 | 3.91695 | 24647 ft | 420 kts | 289° |
| 2026-04-30 06:44 | 52.84672 | 3.87082 | 25008 ft | 427 kts | 289° |
| 2026-04-30 06:44 | 52.85601 | 3.82389 | 25488 ft | 431 kts | 289° |
| 2026-04-30 06:44 | 52.86483 | 3.77628 | 26011 ft | 435 kts | 284° |
| 2026-04-30 06:44 | 52.87029 | 3.72684 | 26475 ft | 439 kts | 279° |
| 2026-04-30 06:45 | 52.87494 | 3.67670 | 26924 ft | 442 kts | 281° |
| 2026-04-30 06:45 | 52.87962 | 3.62640 | 27337 ft | 445 kts | 274° |
| 2026-04-30 06:45 | 52.87955 | 3.57500 | 27748 ft | 447 kts | 267° |
| 2026-04-30 06:45 | 52.88024 | 3.52344 | 28140 ft | 449 kts | 276° |
| 2026-04-30 06:46 | 52.88560 | 3.47229 | 28503 ft | 452 kts | 284° |
| 2026-04-30 06:46 | 52.89357 | 3.42189 | 28894 ft | 454 kts | 284° |
| 2026-04-30 06:46 | 52.90069 | 3.37073 | 29248 ft | 457 kts | 284° |
| 2026-04-30 06:46 | 52.90688 | 3.31899 | 29640 ft | 459 kts | 280° |
| 2026-04-30 06:47 | 52.91268 | 3.26704 | 30147 ft | 458 kts | 281° |
| 2026-04-30 06:47 | 52.91836 | 3.21515 | 30625 ft | 458 kts | 280° |
| 2026-04-30 06:47 | 52.92455 | 3.16346 | 31043 ft | 456 kts | 283° |
| 2026-04-30 06:47 | 52.93115 | 3.11211 | 31466 ft | 455 kts | 281° |
| 2026-04-30 06:48 | 52.93751 | 3.06069 | 31883 ft | 455 kts | 281° |
| 2026-04-30 06:48 | 52.94379 | 3.00952 | 32246 ft | 449 kts | 281° |
| 2026-04-30 06:48 | 52.94985 | 2.95997 | 32312 ft | 430 kts | 281° |
| 2026-04-30 06:49 | 52.96186 | 2.86135 | 32399 ft | 447 kts | 281° |
| 2026-04-30 06:49 | 52.97430 | 2.75843 | 32414 ft | 463 kts | 281° |
| 2026-04-30 06:50 | 52.98705 | 2.65230 | 32402 ft | 471 kts | 281° |
| 2026-04-30 06:50 | 52.99968 | 2.54619 | 32388 ft | 468 kts | 280° |
| 2026-04-30 06:51 | 53.01222 | 2.43997 | 32392 ft | 468 kts | 280° |
| 2026-04-30 06:51 | 53.02465 | 2.33381 | 32388 ft | 468 kts | 280° |
| 2026-04-30 06:52 | 53.03698 | 2.22772 | 32384 ft | 468 kts | 280° |
| 2026-04-30 06:52 | 53.04914 | 2.12153 | 32385 ft | 468 kts | 279° |
| 2026-04-30 06:53 | 53.06203 | 2.01553 | 32379 ft | 468 kts | 280° |
| 2026-04-30 06:53 | 53.07500 | 1.90954 | 32380 ft | 468 kts | 280° |
| 2026-04-30 06:54 | 53.08788 | 1.80349 | 32381 ft | 468 kts | 280° |
| 2026-04-30 06:54 | 53.10066 | 1.69745 | 32380 ft | 467 kts | 280° |
| 2026-04-30 06:55 | 53.11334 | 1.59128 | 32378 ft | 467 kts | 280° |
| 2026-04-30 06:55 | 53.12582 | 1.48600 | 32372 ft | 467 kts | 279° |
| 2026-04-30 06:56 | 53.13828 | 1.37996 | 32375 ft | 466 kts | 279° |
| 2026-04-30 06:56 | 53.15064 | 1.27397 | 32377 ft | 466 kts | 279° |
| 2026-04-30 06:57 | 53.16093 | 1.18508 | 32373 ft | 466 kts | 279° |
| 2026-04-30 06:57 | 53.17313 | 1.07889 | 32372 ft | 466 kts | 279° |
| 2026-04-30 06:58 | 53.18513 | 0.97349 | 32374 ft | 466 kts | 279° |
| 2026-04-30 06:58 | 53.19712 | 0.86735 | 32369 ft | 466 kts | 279° |
| 2026-04-30 06:59 | 53.20900 | 0.76133 | 32367 ft | 465 kts | 278° |
| 2026-04-30 06:59 | 53.22078 | 0.65525 | 32367 ft | 465 kts | 278° |
| 2026-04-30 07:00 | 53.23245 | 0.54927 | 32363 ft | 464 kts | 278° |
| 2026-04-30 07:00 | 53.24404 | 0.44314 | 32360 ft | 465 kts | 278° |
| 2026-04-30 07:01 | 53.25557 | 0.33652 | 32360 ft | 465 kts | 278° |
| 2026-04-30 07:01 | 53.26691 | 0.23078 | 32354 ft | 466 kts | 278° |
| 2026-04-30 07:02 | 53.27824 | 0.12412 | 32351 ft | 466 kts | 278° |
| 2026-04-30 07:02 | 53.29417 | 0.01894 | 32353 ft | 469 kts | 287° |
| 2026-04-30 07:03 | 53.32104 | -0.08090 | 32354 ft | 471 kts | 294° |
| 2026-04-30 07:03 | 53.34973 | -0.17943 | 32362 ft | 471 kts | 295° |
| 2026-04-30 07:04 | 53.37848 | -0.27827 | 32368 ft | 472 kts | 294° |
| 2026-04-30 07:04 | 53.40718 | -0.37733 | 32366 ft | 472 kts | 294° |
| 2026-04-30 07:05 | 53.44988 | -0.52520 | 32369 ft | 472 kts | 294° |
| 2026-04-30 07:05 | 53.47833 | -0.62457 | 32369 ft | 472 kts | 294° |
| 2026-04-30 07:06 | 53.50663 | -0.72398 | 32365 ft | 471 kts | 294° |
| 2026-04-30 07:06 | 53.53486 | -0.82352 | 32361 ft | 472 kts | 294° |
| 2026-04-30 07:07 | 53.56302 | -0.92316 | 32361 ft | 471 kts | 294° |
| 2026-04-30 07:07 | 53.59106 | -1.02289 | 32354 ft | 471 kts | 292° |
| 2026-04-30 07:08 | 53.61384 | -1.12604 | 31897 ft | 468 kts | 281° |
| 2026-04-30 07:08 | 53.62118 | -1.17936 | 31523 ft | 468 kts | 281° |
| 2026-04-30 07:08 | 53.62860 | -1.23285 | 31161 ft | 469 kts | 280° |
| 2026-04-30 07:09 | 53.63588 | -1.28638 | 30803 ft | 470 kts | 280° |
| 2026-04-30 07:09 | 53.64532 | -1.33947 | 30439 ft | 475 kts | 289° |
| 2026-04-30 07:09 | 53.65964 | -1.38974 | 30024 ft | 478 kts | 298° |
| 2026-04-30 07:09 | 53.67861 | -1.43606 | 29622 ft | 480 kts | 308° |
| 2026-04-30 07:10 | 53.70163 | -1.47692 | 29221 ft | 482 kts | 317° |
| 2026-04-30 07:10 | 53.72782 | -1.51101 | 28820 ft | 481 kts | 327° |
| 2026-04-30 07:10 | 53.75700 | -1.53826 | 28426 ft | 477 kts | 335° |
| 2026-04-30 07:10 | 53.78674 | -1.56291 | 28033 ft | 474 kts | 336° |
| 2026-04-30 07:11 | 53.81707 | -1.58454 | 27604 ft | 472 kts | 337° |
| 2026-04-30 07:11 | 53.84683 | -1.60754 | 27093 ft | 468 kts | 336° |
| 2026-04-30 07:11 | 53.87627 | -1.63036 | 26593 ft | 464 kts | 336° |
| 2026-04-30 07:11 | 53.90544 | -1.65317 | 26142 ft | 460 kts | 336° |
| 2026-04-30 07:12 | 53.93441 | -1.67586 | 25715 ft | 457 kts | 336° |
| 2026-04-30 07:12 | 53.96332 | -1.69854 | 25305 ft | 456 kts | 336° |
| 2026-04-30 07:12 | 53.99206 | -1.72112 | 25116 ft | 455 kts | 336° |
| 2026-04-30 07:12 | 54.02067 | -1.74442 | 24799 ft | 456 kts | 331° |
| 2026-04-30 07:13 | 54.04772 | -1.77200 | 24450 ft | 452 kts | 329° |
| 2026-04-30 07:13 | 54.07463 | -1.79943 | 24051 ft | 450 kts | 329° |
| 2026-04-30 07:13 | 54.10122 | -1.82703 | 23526 ft | 446 kts | 329° |
| 2026-04-30 07:13 | 54.12900 | -1.84958 | 22973 ft | 442 kts | 344° |
| 2026-04-30 07:14 | 54.15881 | -1.85682 | 22429 ft | 425 kts | 1° |
| 2026-04-30 07:14 | 54.18765 | -1.85170 | 21865 ft | 411 kts | 12° |
| 2026-04-30 07:14 | 54.21562 | -1.84367 | 21234 ft | 404 kts | 13° |
| 2026-04-30 07:14 | 54.24308 | -1.83520 | 20612 ft | 399 kts | 13° |
| 2026-04-30 07:15 | 54.27027 | -1.82668 | 19917 ft | 395 kts | 13° |
| 2026-04-30 07:15 | 54.29729 | -1.81818 | 19201 ft | 394 kts | 13° |
| 2026-04-30 07:15 | 54.32383 | -1.80983 | 18499 ft | 392 kts | 13° |
| 2026-04-30 07:15 | 54.35035 | -1.80148 | 17706 ft | 381 kts | 13° |
| 2026-04-30 07:16 | 54.37601 | -1.79338 | 16930 ft | 371 kts | 13° |
| 2026-04-30 07:16 | 54.40121 | -1.78540 | 16176 ft | 366 kts | 13° |
| 2026-04-30 07:16 | 54.42591 | -1.77763 | 15434 ft | 356 kts | 13° |
| 2026-04-30 07:16 | 54.45002 | -1.76997 | 14725 ft | 348 kts | 13° |
| 2026-04-30 07:17 | 54.47364 | -1.76249 | 13988 ft | 342 kts | 13° |
| 2026-04-30 07:17 | 54.49680 | -1.75516 | 13187 ft | 335 kts | 14° |
| 2026-04-30 07:17 | 54.54130 | -1.74105 | 11563 ft | 316 kts | 14° |
| 2026-04-30 07:18 | 54.56266 | -1.73424 | 10752 ft | 308 kts | 14° |
| 2026-04-30 07:18 | 54.58336 | -1.72763 | 10221 ft | 296 kts | 15° |
| 2026-04-30 07:18 | 54.60318 | -1.72133 | 9672 ft | 283 kts | 15° |
| 2026-04-30 07:18 | 54.62244 | -1.71515 | 9156 ft | 280 kts | 15° |
| 2026-04-30 07:19 | 54.64153 | -1.70934 | 8649 ft | 277 kts | 11° |
| 2026-04-30 07:19 | 54.66070 | -1.71333 | 8152 ft | 283 kts | 340° |
| 2026-04-30 07:19 | 54.67780 | -1.72962 | 7702 ft | 279 kts | 328° |
| 2026-04-30 07:19 | 54.69387 | -1.74834 | 7219 ft | 278 kts | 326° |
| 2026-04-30 07:20 | 54.70963 | -1.76766 | 6752 ft | 275 kts | 325° |
| 2026-04-30 07:20 | 54.72489 | -1.78677 | 6241 ft | 269 kts | 325° |
| 2026-04-30 07:20 | 54.73997 | -1.80581 | 5743 ft | 269 kts | 324° |
| 2026-04-30 07:20 | 54.75510 | -1.82496 | 5265 ft | 270 kts | 324° |
| 2026-04-30 07:21 | 54.77025 | -1.84412 | 4759 ft | 270 kts | 324° |
| 2026-04-30 07:21 | 54.78544 | -1.86325 | 4256 ft | 269 kts | 324° |
| 2026-04-30 07:21 | 54.80029 | -1.88187 | 4101 ft | 259 kts | 324° |
| 2026-04-30 07:21 | 54.81465 | -1.89981 | 4056 ft | 249 kts | 325° |
| 2026-04-30 07:22 | 54.84256 | -1.93470 | 3560 ft | 246 kts | 324° |
| 2026-04-30 07:22 | 54.85624 | -1.95177 | 3236 ft | 238 kts | 324° |
| 2026-04-30 07:22 | 54.86945 | -1.96821 | 3086 ft | 232 kts | 324° |
| 2026-04-30 07:23 | 54.88264 | -1.98462 | 3014 ft | 234 kts | 324° |
| 2026-04-30 07:23 | 54.89647 | -1.99971 | 2753 ft | 232 kts | 342° |
| 2026-04-30 07:23 | 54.91189 | -2.00144 | 2461 ft | 217 kts | 20° |
| 2026-04-30 07:23 | 54.92490 | -1.99026 | 2217 ft | 207 kts | 37° |
| 2026-04-30 07:24 | 54.93678 | -1.97656 | 2090 ft | 204 kts | 39° |
| 2026-04-30 07:24 | 54.94860 | -1.96317 | 2036 ft | 197 kts | 38° |
| 2026-04-30 07:24 | 54.95993 | -1.95020 | 2045 ft | 196 kts | 38° |
| 2026-04-30 07:24 | 54.97071 | -1.93606 | 2021 ft | 190 kts | 55° |
| 2026-04-30 07:25 | 54.97670 | -1.91798 | 1985 ft | 165 kts | 71° |
| 2026-04-30 07:25 | 54.98166 | -1.90015 | 2002 ft | 165 kts | 69° |
| 2026-04-30 07:25 | 54.98675 | -1.88211 | 2011 ft | 167 kts | 71° |
| 2026-04-30 07:25 | 54.99158 | -1.86372 | 1977 ft | 166 kts | 71° |
| 2026-04-30 07:26 | 54.99629 | -1.84629 | 1998 ft | 153 kts | 71° |
| 2026-04-30 07:26 | 55.00073 | -1.82959 | 1853 ft | 145 kts | 71° |
| 2026-04-30 07:26 | 55.00477 | -1.81443 | 1695 ft | 134 kts | 71° |
| 2026-04-30 07:26 | 55.00865 | -1.79989 | 1518 ft | 131 kts | 71° |
| 2026-04-30 07:27 | 55.01246 | -1.78554 | 1341 ft | 130 kts | 69° |
| 2026-04-30 07:27 | 55.01629 | -1.77115 | 1140 ft | 131 kts | 68° |
| 2026-04-30 07:27 | 55.02001 | -1.75684 | 990 ft | 129 kts | 67° |
| 2026-04-30 07:27 | 55.02387 | -1.74274 | 810 ft | 129 kts | 66° |
| 2026-04-30 07:28 | 55.02767 | -1.72864 | 624 ft | 128 kts | 67° |
| 2026-04-30 07:28 | 55.03134 | -1.71461 | 433 ft | 128 kts | 67° |
| 2026-04-30 07:28 | 55.03510 | -1.70052 | 271 ft | 123 kts | 66° |
| 2026-04-30 07:28 | 55.03778 | -1.69038 | 255 ft | 57 kts | 65° |
| 2026-04-30 07:29 | 55.03895 | -1.68593 | 257 ft | 22 kts | 63° |
| 2026-04-30 07:29 | 55.03950 | -1.68425 | 254 ft | 15 kts | 50° |
| 2026-04-30 07:29 | 55.04039 | -1.68301 | 253 ft | 18 kts | 36° |
| 2026-04-30 07:29 | 55.04126 | -1.68232 | 247 ft | 14 kts | 341° |
| 2026-04-30 07:30 | 55.04089 | -1.68550 | 250 ft | 15 kts | 245° |
| 2026-04-30 07:30 | 55.04047 | -1.68715 | 253 ft | 15 kts | 247° |
| 2026-04-30 07:30 | 55.03728 | -1.70584 | 264 ft | 0 kts | 241° |